Time;durP1;ratioP1;P1;durP2;ratioP2;P2;SDS_P1;SDS_P2;PMS_P1;PMS_P2;Temp;Humidity;BMP_temperature;BMP_pressure;BME280_temperature;BME280_humidity;BME280_pressure;Samples;Min_cycle;Max_cycle;Signal;HPM_P1;HPM_P2
2024/02/07 00:01:41;;;;;;;5.30;3.40;;;;;;;7.07;100.00;98597.52;87099;267;135896;-74
2024/02/07 00:03:43;;;;;;;7.40;3.60;;;;;;;7.06;100.00;98599.65;87214;274;22545;-73
2024/02/07 00:05:45;;;;;;;5.30;3.80;;;;;;;7.04;100.00;98595.05;87104;267;136223;-72
2024/02/07 00:07:48;;;;;;;6.20;2.80;;;;;;;7.05;100.00;98592.80;87257;267;24142;-73
2024/02/07 00:09:49;;;;;;;3.50;2.70;;;;;;;7.08;100.00;98591.56;87082;270;137760;-72
2024/02/07 00:11:51;;;;;;;3.40;2.60;;;;;;;7.10;100.00;98592.88;87189;274;22909;-73
2024/02/07 00:13:53;;;;;;;4.30;2.80;;;;;;;7.10;100.00;98589.82;86976;278;136542;-73
2024/02/07 00:15:55;;;;;;;5.30;4.30;;;;;;;7.11;100.00;98592.95;87265;279;25111;-72
2024/02/07 00:17:58;;;;;;;5.70;3.70;;;;;;;7.12;100.00;98592.09;87272;270;137490;-73
2024/02/07 00:20:00;;;;;;;4.50;3.00;;;;;;;7.13;100.00;98589.84;87183;271;22558;-73
2024/02/07 00:22:03;;;;;;;5.10;3.30;;;;;;;7.10;100.00;98587.00;87357;270;22561;-72
2024/02/07 00:24:06;;;;;;;4.40;2.90;;;;;;;7.06;100.00;98586.73;87077;267;137852;-71
2024/02/07 00:26:08;;;;;;;3.40;2.90;;;;;;;7.01;100.00;98582.79;87051;271;25134;-72
2024/02/07 00:28:10;;;;;;;3.20;2.80;;;;;;;6.99;100.00;98584.22;87090;271;136620;-73
2024/02/07 00:30:12;;;;;;;6.00;3.90;;;;;;;7.02;100.00;98580.61;87163;270;23084;-72
2024/02/07 00:32:29;;;;;;;4.40;3.10;;;;;;;7.05;100.00;98579.34;87022;270;137006;-72
2024/02/07 00:34:33;;;;;;;3.50;2.60;;;;;;;7.09;100.00;98582.77;87097;275;23998;-74
2024/02/07 00:36:35;;;;;;;3.90;2.80;;;;;;;7.10;100.00;98574.13;86870;269;136452;-73
2024/02/07 00:38:37;;;;;;;4.40;3.20;;;;;;;7.06;100.00;98574.62;87131;266;24005;-74
2024/02/07 00:40:39;;;;;;;5.20;2.70;;;;;;;7.03;100.00;98574.91;86746;279;135713;-72
2024/02/07 00:42:41;;;;;;;5.00;3.60;;;;;;;6.99;100.00;98577.13;87237;270;22956;-73
2024/02/07 00:44:44;;;;;;;5.30;2.70;;;;;;;6.96;100.00;98576.24;87126;269;136024;-73
2024/02/07 00:46:47;;;;;;;7.60;3.40;;;;;;;7.00;100.00;98574.64;87214;271;25284;-74
2024/02/07 00:48:49;;;;;;;5.90;3.10;;;;;;;7.05;100.00;98565.17;87224;274;136750;-75
2024/02/07 00:50:51;;;;;;;3.70;2.70;;;;;;;7.07;100.00;98566.79;87179;275;22848;-73
2024/02/07 00:52:53;;;;;;;3.90;2.90;;;;;;;7.08;100.00;98562.34;87131;266;137921;-72
2024/02/07 00:54:54;;;;;;;6.50;4.50;;;;;;;7.08;100.00;98559.52;87222;269;26381;-76
2024/02/07 00:56:57;;;;;;;4.90;2.30;;;;;;;7.06;100.00;98558.02;86846;272;136294;-74
2024/02/07 00:58:59;;;;;;;5.90;2.80;;;;;;;7.06;100.00;98552.49;86875;280;25257;-72
2024/02/07 01:01:03;;;;;;;4.80;3.20;;;;;;;7.02;100.00;98548.34;87003;275;136677;-73
2024/02/07 01:03:05;;;;;;;2.80;2.50;;;;;;;7.00;100.00;98540.16;87141;277;25098;-72
2024/02/07 01:05:09;;;;;;;4.70;2.90;;;;;;;7.03;100.00;98546.67;87097;271;137218;-75
2024/02/07 01:07:11;;;;;;;4.80;2.70;;;;;;;7.07;100.00;98547.02;87372;270;22923;-74
2024/02/07 01:09:14;;;;;;;4.10;3.30;;;;;;;7.10;100.00;98547.34;87075;267;137000;-74
2024/02/07 01:11:15;;;;;;;5.20;2.40;;;;;;;7.13;100.00;98540.44;87170;270;24122;-71
2024/02/07 01:13:17;;;;;;;2.60;2.40;;;;;;;7.12;100.00;98529.58;86981;269;137246;-71
2024/02/07 01:15:19;;;;;;;6.80;2.90;;;;;;;7.07;100.00;98529.82;87148;271;26195;-73
2024/02/07 01:17:21;;;;;;;2.30;2.10;;;;;;;7.04;100.00;98522.47;87082;267;136467;-73
2024/02/07 01:19:24;;;;;;;4.00;3.40;;;;;;;7.02;100.00;98519.73;87221;269;22549;-71
2024/02/07 01:21:26;;;;;;;4.90;3.20;;;;;;;7.04;100.00;98522.82;87042;278;136926;-72
2024/02/07 01:23:28;;;;;;;2.90;2.70;;;;;;;7.10;100.00;98517.11;87132;274;22652;-72
2024/02/07 01:25:30;;;;;;;3.10;2.80;;;;;;;7.13;100.00;98508.52;87115;278;138115;-72
2024/02/07 01:27:32;;;;;;;2.90;2.40;;;;;;;7.15;100.00;98515.33;87202;274;22652;-71
2024/02/07 01:29:34;;;;;;;5.00;3.40;;;;;;;7.14;100.00;98513.32;87011;271;136020;-72
2024/02/07 01:31:36;;;;;;;4.50;3.00;;;;;;;7.11;100.00;98508.65;87385;271;24820;-71
2024/02/07 01:33:38;;;;;;;3.20;2.90;;;;;;;7.10;100.00;98506.98;87120;271;136095;-75
2024/02/07 01:35:41;;;;;;;3.40;3.00;;;;;;;7.08;100.00;98512.74;87460;274;25157;-74
2024/02/07 01:37:42;;;;;;;2.90;2.40;;;;;;;7.06;100.00;98504.76;87159;271;136977;-73
2024/02/07 01:39:45;;;;;;;4.70;2.80;;;;;;;7.08;100.00;98512.17;87356;271;25214;-71
2024/02/07 01:41:59;;;;;;;3.60;3.00;;;;;;;7.11;100.00;98501.20;87123;271;138010;-73
2024/02/07 01:44:02;;;;;;;4.10;3.40;;;;;;;7.13;100.00;98498.34;87489;271;22468;-72
2024/02/07 01:46:04;;;;;;;2.90;2.60;;;;;;;7.13;100.00;98496.13;87214;274;22746;-72
2024/02/07 01:48:07;;;;;;;5.00;2.40;;;;;;;7.10;100.00;98499.61;87129;271;136396;-73
2024/02/07 01:50:10;;;;;;;4.70;2.60;;;;;;;7.05;100.00;98499.38;87382;266;22555;-75
2024/02/07 01:52:14;;;;;;;5.70;3.50;;;;;;;7.02;100.00;98488.84;87425;270;138682;-76
2024/02/07 01:54:16;;;;;;;3.40;3.10;;;;;;;7.01;100.00;98488.92;87319;274;23483;-75
2024/02/07 01:56:19;;;;;;;3.80;2.40;;;;;;;6.96;100.00;98489.36;87100;278;136508;-73
2024/02/07 01:58:29;;;;;;;4.80;3.00;;;;;;;6.97;100.00;98484.91;87295;271;22528;-72
2024/02/07 02:00:32;;;;;;;3.30;2.90;;;;;;;7.02;100.00;98483.70;87506;275;136441;-73
2024/02/07 02:02:34;;;;;;;3.90;2.80;;;;;;;7.07;100.00;98481.33;87111;269;24020;-73
2024/02/07 02:04:36;;;;;;;4.50;2.20;;;;;;;7.11;100.00;98485.86;87131;270;136421;-74
2024/02/07 02:06:38;;;;;;;3.00;2.50;;;;;;;7.12;100.00;98479.75;87197;269;24237;-76
2024/02/07 02:08:39;;;;;;;5.80;3.20;;;;;;;7.10;100.00;98477.15;87131;279;136229;-74
2024/02/07 02:10:41;;;;;;;5.30;3.30;;;;;;;7.08;100.00;98478.33;87061;280;22583;-73
2024/02/07 02:12:44;;;;;;;3.20;2.90;;;;;;;7.09;100.00;98483.88;87017;271;135879;-74
2024/02/07 02:14:47;;;;;;;4.80;2.90;;;;;;;7.09;100.00;98478.58;87255;271;22564;-74
2024/02/07 02:16:49;;;;;;;4.10;2.60;;;;;;;7.09;100.00;98473.82;87386;271;136033;-75
2024/02/07 02:18:53;;;;;;;8.50;3.80;;;;;;;7.12;100.00;98473.72;87066;271;25527;-73
2024/02/07 02:20:55;;;;;;;7.70;3.20;;;;;;;7.15;100.00;98472.61;86679;267;734573;-73
2024/02/07 02:23:13;;;;;;;4.30;2.70;;;;;;;7.17;100.00;98468.60;87202;267;25026;-74
2024/02/07 02:25:53;;;;;;;4.30;2.70;;;;;;;7.17;100.00;98466.39;87624;267;136559;-74
2024/02/07 02:28:32;;;;;;;3.30;3.10;;;;;;;7.15;100.00;98465.71;87070;271;23774;-73
2024/02/07 02:30:47;;;;;;;6.10;3.40;;;;;;;7.10;100.00;98468.20;87256;269;22589;-72
2024/02/07 02:32:49;;;;;;;7.10;3.80;;;;;;;7.08;100.00;98464.77;87116;270;136022;-74
2024/02/07 02:34:53;;;;;;;4.70;3.30;;;;;;;7.08;100.00;98464.88;87359;274;22568;-72
2024/02/07 02:36:55;;;;;;;4.40;2.60;;;;;;;7.09;100.00;98464.77;87163;270;136204;-74
2024/02/07 02:38:57;;;;;;;5.60;3.10;;;;;;;7.12;100.00;98457.44;87286;266;22591;-73
2024/02/07 02:40:59;;;;;;;3.60;2.70;;;;;;;7.17;100.00;98455.67;87202;266;138095;-72
2024/02/07 02:43:03;;;;;;;3.40;3.10;;;;;;;7.19;100.00;98452.98;87149;272;25224;-73
2024/02/07 02:45:06;;;;;;;8.90;3.00;;;;;;;7.21;100.00;98453.42;88597;276;137225;-73
2024/02/07 02:47:08;;;;;;;2.70;2.50;;;;;;;7.18;100.00;98451.42;87234;271;22576;-72
2024/02/07 02:49:10;;;;;;;2.50;2.30;;;;;;;7.17;100.00;98451.79;87040;276;135574;-73
2024/02/07 02:51:12;;;;;;;4.70;2.60;;;;;;;7.17;100.00;98451.05;87322;278;22573;-73
2024/02/07 02:53:17;;;;;;;6.10;3.10;;;;;;;7.16;100.00;98446.79;87213;274;135898;-73
2024/02/07 02:55:19;;;;;;;4.40;3.30;;;;;;;7.15;100.00;98448.75;87288;266;22564;-74
2024/02/07 02:57:22;;;;;;;4.20;3.20;;;;;;;7.16;100.00;98446.35;87098;277;138251;-72
2024/02/07 02:59:25;;;;;;;5.30;1.70;;;;;;;7.19;100.00;98443.66;87295;273;25092;-74
2024/02/07 03:01:28;;;;;;;2.70;2.50;;;;;;;7.23;100.00;98436.89;87091;271;137032;-72
2024/02/07 03:03:31;;;;;;;11.50;3.00;;;;;;;7.21;100.00;98439.71;87744;267;22549;-73
2024/02/07 03:07:54;;;;;;;5.90;2.90;;;;;;;7.15;100.00;98437.46;87192;269;25076;-73
2024/02/07 03:09:56;;;;;;;3.20;2.50;;;;;;;7.16;100.00;98424.00;87222;271;135828;-72
2024/02/07 03:11:58;;;;;;;9.70;2.40;;;;;;;7.17;100.00;98422.89;87269;270;24260;-72
2024/02/07 03:14:06;;;;;;;3.00;2.70;;;;;;;7.14;100.00;98426.30;87273;273;136981;-75
2024/02/07 03:16:12;;;;;;;3.30;2.90;;;;;;;7.15;100.00;98417.08;87179;262;137304;-71
2024/02/07 03:18:14;;;;;;;4.70;2.80;;;;;;;7.20;100.00;98410.37;87361;270;25229;-73
2024/02/07 03:20:16;;;;;;;3.60;2.30;;;;;;;7.25;100.00;98410.41;87197;269;137035;-72
2024/02/07 03:22:19;;;;;;;2.70;2.30;;;;;;;7.29;100.00;98411.54;87208;277;25210;-72
2024/02/07 03:24:21;;;;;;;4.20;2.40;;;;;;;7.27;100.00;98410.63;87129;271;136374;-74
2024/02/07 03:26:23;;;;;;;3.40;2.50;;;;;;;7.24;100.00;98401.78;87210;273;25178;-72
2024/02/07 03:28:25;;;;;;;3.10;1.90;;;;;;;7.21;100.00;98400.58;88350;270;136166;-74
2024/02/07 03:30:28;;;;;;;4.70;2.70;;;;;;;7.20;100.00;98400.01;87349;266;23791;-75
2024/02/07 03:32:31;;;;;;;3.30;2.60;;;;;;;7.20;100.00;98396.51;87294;267;136308;-71
2024/02/07 03:34:33;;;;;;;3.20;2.40;;;;;;;7.18;100.00;98393.91;87292;274;25091;-71
2024/02/07 03:36:36;;;;;;;4.30;1.90;;;;;;;7.22;100.00;98387.77;87322;269;137853;-71
2024/02/07 03:38:38;;;;;;;3.10;2.40;;;;;;;7.29;100.00;98390.29;87172;270;22545;-73
2024/02/07 03:40:42;;;;;;;3.50;1.80;;;;;;;7.30;100.00;98378.51;87227;274;136892;-73
2024/02/07 03:42:44;;;;;;;2.20;2.00;;;;;;;7.28;100.00;98382.80;87254;273;22584;-72
2024/02/07 03:44:56;;;;;;;3.10;1.80;;;;;;;7.25;100.00;98385.11;87135;274;135592;-73
2024/02/07 03:46:58;;;;;;;3.70;2.70;;;;;;;7.21;100.00;98385.85;87276;276;25315;-73
2024/02/07 03:49:03;;;;;;;2.90;2.30;;;;;;;7.18;100.00;98379.08;87183;267;136183;-72
2024/02/07 03:51:05;;;;;;;2.30;2.10;;;;;;;7.17;100.00;98378.50;87310;271;25079;-72
2024/02/07 03:53:10;;;;;;;3.50;1.90;;;;;;;7.16;100.00;98378.47;87121;278;135950;-72
2024/02/07 03:55:12;;;;;;;2.20;1.80;;;;;;;7.18;100.00;98375.04;87232;274;22564;-71
2024/02/07 03:57:14;;;;;;;4.70;2.60;;;;;;;7.19;100.00;98369.03;87051;263;137979;-73
2024/02/07 03:59:18;;;;;;;4.70;2.50;;;;;;;7.18;100.00;98367.58;87164;269;24106;-72
2024/02/07 04:01:21;;;;;;;3.70;2.20;;;;;;;7.18;100.00;98370.42;86947;270;136229;-74
2024/02/07 04:03:23;;;;;;;2.20;2.10;;;;;;;7.16;100.00;98353.41;87296;269;25132;-74
2024/02/07 04:05:26;;;;;;;4.20;2.00;;;;;;;7.15;100.00;98360.55;87138;278;136118;-72
2024/02/07 04:07:29;;;;;;;4.50;2.10;;;;;;;7.15;100.00;98354.67;87698;270;23640;-72
2024/02/07 04:09:31;;;;;;;3.30;1.60;;;;;;;7.13;100.00;98348.70;87033;276;136319;-75
2024/02/07 05:16:33;;;;;;;3.50;1.50;;;;;;;7.42;100.00;98300.64;87401;270;136909;-74
2024/02/07 05:18:35;;;;;;;1.70;1.60;;;;;;;7.45;100.00;98300.75;87573;278;25121;-76
2024/02/07 05:20:37;;;;;;;2.20;1.90;;;;;;;7.48;100.00;98295.78;87434;269;136175;-74
2024/02/07 05:22:38;;;;;;;2.70;2.30;;;;;;;7.46;100.00;98291.92;87634;269;24084;-77
2024/02/07 05:24:41;;;;;;;2.70;2.00;;;;;;;7.41;100.00;98300.37;87253;274;136202;-70
2024/02/07 05:26:43;;;;;;;3.00;2.20;;;;;;;7.39;100.00;98292.29;87421;270;25105;-76
2024/02/07 05:28:45;;;;;;;3.40;2.50;;;;;;;7.37;100.00;98289.80;87214;270;136033;-74
2024/02/07 05:30:47;;;;;;;3.40;2.10;;;;;;;7.36;100.00;98292.20;87447;266;22597;-73
2024/02/07 05:32:49;;;;;;;3.80;2.10;;;;;;;7.35;100.00;98290.83;87417;274;136037;-75
2024/02/07 05:34:51;;;;;;;5.50;3.20;;;;;;;7.39;100.00;98294.52;87527;271;22561;-73
2024/02/07 05:36:53;;;;;;;7.50;3.10;;;;;;;7.45;100.00;98297.45;87466;270;136557;-74
2024/02/07 05:38:55;;;;;;;3.10;2.20;;;;;;;7.49;100.00;98292.27;88280;267;24418;-74
2024/02/07 05:41:01;;;;;;;4.10;2.80;;;;;;;7.50;100.00;98297.36;89050;266;135960;-74
2024/02/07 05:43:05;;;;;;;2.60;2.40;;;;;;;7.48;100.00;98294.20;88300;267;25378;-75
2024/02/07 05:45:08;;;;;;;4.30;2.80;;;;;;;7.49;100.00;98295.77;88409;272;137109;-74
2024/02/07 05:47:10;;;;;;;2.80;2.50;;;;;;;7.49;100.00;98295.67;90240;268;22189;-74
2024/02/07 05:49:16;;;;;;;3.90;3.50;;;;;;;7.49;100.00;98293.29;87658;274;137243;-71
2024/02/07 05:51:22;;;;;;;3.30;2.70;;;;;;;7.49;100.00;98288.30;89805;262;22581;-76
2024/02/07 05:53:24;;;;;;;3.60;2.50;;;;;;;7.52;100.00;98282.48;89969;274;137137;-74
2024/02/07 05:55:26;;;;;;;5.10;2.70;;;;;;;7.59;100.00;98286.95;90349;269;22402;-71
2024/02/07 05:57:29;;;;;;;5.80;2.50;;;;;;;7.68;100.00;98281.48;88694;272;137419;-70
2024/02/07 05:59:31;;;;;;;4.90;2.20;;;;;;;7.75;100.00;98278.22;87253;276;22573;-72
2024/02/07 06:01:34;;;;;;;3.50;2.70;;;;;;;7.80;100.00;98278.61;87128;276;136162;-72
2024/02/07 06:03:36;;;;;;;3.80;2.30;;;;;;;7.83;100.00;98274.66;87219;270;25086;-72
2024/02/07 06:05:39;;;;;;;8.70;3.00;;;;;;;7.85;100.00;98273.39;87065;263;136169;-71
2024/02/07 06:07:41;;;;;;;3.40;2.00;;;;;;;7.87;100.00;98269.52;87489;269;25101;-74
2024/02/07 06:09:45;;;;;;;3.40;2.30;;;;;;;7.88;100.00;98264.77;87086;270;137050;-74
2024/02/07 06:11:47;;;;;;;2.60;1.80;;;;;;;7.86;100.00;98266.39;87296;267;22571;-73
2024/02/07 06:13:49;;;;;;;3.10;2.20;;;;;;;7.83;100.00;98264.87;87077;271;136038;-71
2024/02/07 06:15:51;;;;;;;4.20;1.70;;;;;;;7.83;100.00;98258.95;87144;274;24026;-69
2024/02/07 06:17:53;;;;;;;4.20;2.20;;;;;;;7.83;100.00;98264.42;87130;267;137577;-69
2024/02/07 06:19:55;;;;;;;3.00;2.00;;;;;;;7.87;100.00;98264.02;87352;274;24068;-70
2024/02/07 06:23:54;;;;;;;2.90;2.00;;;;;;;7.86;100.00;98262.88;85076;296;604102;-66
2024/02/07 06:25:56;;;;;;;3.50;2.50;;;;;;;7.83;100.00;98260.98;86537;278;135511;-71
2024/02/07 06:27:58;;;;;;;4.30;2.30;;;;;;;7.81;100.00;98257.95;86576;281;22565;-70
2024/02/07 06:30:00;;;;;;;3.50;2.90;;;;;;;7.78;100.00;98257.71;86339;282;135176;-71
2024/02/07 06:32:02;;;;;;;5.60;2.60;;;;;;;7.77;100.00;98257.80;86791;282;25196;-74
2024/02/07 06:34:04;;;;;;;5.20;2.50;;;;;;;7.77;100.00;98254.41;86584;281;22570;-73
2024/02/07 06:36:07;;;;;;;5.60;3.10;;;;;;;7.76;100.00;98257.55;86662;286;135440;-71
2024/02/07 06:38:08;;;;;;;3.90;3.00;;;;;;;7.77;100.00;98257.02;86087;276;862043;-70
2024/02/07 06:40:11;;;;;;;6.10;2.20;;;;;;;7.81;100.00;98256.41;86667;280;135872;-70
2024/02/07 06:42:13;;;;;;;5.50;2.80;;;;;;;7.89;100.00;98255.09;86784;285;25252;-70
2024/02/07 06:44:15;;;;;;;5.10;2.50;;;;;;;7.99;100.00;98254.52;86595;285;136831;-69
2024/02/07 06:46:18;;;;;;;4.40;2.80;;;;;;;8.03;100.00;98259.62;86833;276;25354;-71
2024/02/07 06:48:20;;;;;;;4.80;2.00;;;;;;;8.03;100.00;98262.40;86662;276;135818;-71
2024/02/07 06:50:24;;;;;;;3.50;1.70;;;;;;;8.02;100.00;98265.88;86713;276;22548;-69
2024/02/07 06:52:26;;;;;;;3.10;1.80;;;;;;;7.99;100.00;98264.10;86794;273;136795;-70
2024/02/07 06:54:28;;;;;;;2.90;2.00;;;;;;;7.98;100.00;98258.45;86977;280;25243;-70
2024/02/07 06:56:31;;;;;;;2.60;1.80;;;;;;;7.96;100.00;98260.83;86765;283;135743;-71
2024/02/07 06:58:35;;;;;;;4.40;2.10;;;;;;;7.96;100.00;98262.56;86728;277;22579;-69
2024/02/07 07:00:38;;;;;;;2.00;1.70;;;;;;;7.96;100.00;98257.90;86898;277;135877;-69
2024/02/07 07:02:40;;;;;;;3.30;1.90;;;;;;;8.03;100.00;98254.98;86772;281;22579;-70
2024/02/07 07:04:42;;;;;;;2.90;1.80;;;;;;;8.13;100.00;98260.92;86508;284;137435;-71
2024/02/07 07:06:44;;;;;;;2.20;1.90;;;;;;;8.24;100.00;98263.23;86778;275;25275;-69
2024/02/07 07:08:46;;;;;;;1.50;1.30;;;;;;;8.31;100.00;98258.81;86615;279;135634;-69
2024/02/07 07:10:48;;;;;;;3.90;1.50;;;;;;;8.34;100.00;98256.13;86764;276;22574;-72
2024/02/07 07:12:50;;;;;;;1.70;1.20;;;;;;;8.36;100.00;98254.88;86606;276;135757;-69
2024/02/07 07:14:52;;;;;;;2.20;1.60;;;;;;;8.41;100.00;98251.64;86664;285;22649;-72
2024/02/07 07:16:53;;;;;;;2.90;1.90;;;;;;;8.44;100.00;98246.07;86700;277;136134;-69
2024/02/07 07:18:57;;;;;;;2.70;1.70;;;;;;;8.48;100.00;98242.92;86762;268;22609;-71
2024/02/07 07:20:59;;;;;;;4.80;2.30;;;;;;;8.52;100.00;98241.34;86581;273;135648;-75
2024/02/07 07:23:02;;;;;;;1.50;1.40;;;;;;;8.55;100.00;98243.20;86730;284;22627;-69
2024/02/07 07:25:16;;;;;;;5.60;2.50;;;;;;;8.55;100.00;98240.79;86766;272;135958;-70
2024/02/07 07:27:18;;;;;;;4.00;1.80;;;;;;;8.59;100.00;98240.61;86889;281;23943;-71
2024/02/07 07:29:20;;;;;;;2.20;1.70;;;;;;;8.69;100.00;98241.61;86671;272;136613;-70
2024/02/07 07:31:21;;;;;;;2.50;1.80;;;;;;;8.78;100.00;98244.33;86757;276;23151;-69
2024/02/07 07:33:24;;;;;;;2.40;1.40;;;;;;;8.83;100.00;98245.66;86615;277;135962;-69
2024/02/07 07:35:26;;;;;;;2.70;2.20;;;;;;;8.84;100.00;98240.91;86585;285;22609;-71
2024/02/07 07:37:28;;;;;;;3.20;1.80;;;;;;;8.86;100.00;98240.70;86777;282;136790;-72
2024/02/07 07:39:30;;;;;;;1.40;1.30;;;;;;;8.87;100.00;98245.03;86896;274;25278;-70
2024/02/07 07:41:31;;;;;;;2.30;1.80;;;;;;;8.85;100.00;98241.83;86817;273;135748;-76
2024/02/07 07:43:35;;;;;;;5.00;2.30;;;;;;;8.84;100.00;98241.73;86858;277;22544;-72
2024/02/07 07:45:37;;;;;;;2.60;1.50;;;;;;;8.85;100.00;98245.50;86716;274;135361;-69
2024/02/07 07:47:39;;;;;;;3.40;2.10;;;;;;;8.84;100.00;98240.17;86910;274;22572;-72
2024/02/07 07:49:42;;;;;;;2.00;1.70;;;;;;;8.82;100.00;98238.16;86836;273;135734;-71
2024/02/07 07:51:44;;;;;;;4.80;1.70;;;;;;;8.77;100.00;98238.77;87007;281;22574;-69
2024/02/07 07:53:46;;;;;;;1.20;1.10;;;;;;;8.73;100.00;98236.20;86880;281;136268;-70
2024/02/07 07:55:48;;;;;;;4.50;1.40;;;;;;;8.74;100.00;98235.78;89649;267;23045;-76
2024/02/07 07:57:50;;;;;;;3.10;1.40;;;;;;;8.76;100.00;98233.88;89617;271;135905;-71
2024/02/07 07:59:52;;;;;;;4.80;1.10;;;;;;;8.75;100.00;98234.38;89741;269;22233;-70
2024/02/07 08:01:58;;;;;;;2.00;1.10;;;;;;;8.73;100.00;98227.95;89610;271;135389;-71
2024/02/07 08:04:00;;;;;;;1.70;1.30;;;;;;;8.70;100.00;98223.91;89693;270;23186;-72
2024/02/07 08:06:02;;;;;;;2.30;2.10;;;;;;;8.72;100.00;98227.97;89641;274;136204;-72
2024/02/07 08:08:07;;;;;;;3.20;2.10;;;;;;;8.75;100.00;98216.84;89669;267;136479;-76
2024/02/07 08:10:10;;;;;;;3.60;2.00;;;;;;;8.77;100.00;98221.15;88176;277;22546;-69
2024/02/07 08:12:13;;;;;;;3.30;1.50;;;;;;;8.78;100.00;98223.50;87011;277;137303;-71
2024/02/07 08:14:15;;;;;;;2.90;1.80;;;;;;;8.78;100.00;98216.02;86967;270;22567;-70
2024/02/07 08:16:17;;;;;;;3.00;1.60;;;;;;;8.80;100.00;98218.81;86675;275;135747;-70
2024/02/07 08:18:20;;;;;;;4.00;2.60;;;;;;;8.80;100.00;98212.48;87095;273;22558;-71
2024/02/07 08:20:22;;;;;;;4.60;1.40;;;;;;;8.77;100.00;98212.55;87178;274;137253;-72
2024/02/07 08:22:24;;;;;;;2.50;1.90;;;;;;;8.81;100.00;98214.91;87269;274;22651;-71
2024/02/07 08:24:26;;;;;;;3.90;1.60;;;;;;;8.88;100.00;98206.95;86999;267;137266;-69
2024/02/07 08:26:28;;;;;;;2.50;1.20;;;;;;;8.90;100.00;98210.73;87032;267;25227;-72
2024/02/07 08:28:29;;;;;;;2.10;1.80;;;;;;;8.89;100.00;98204.64;87031;266;136092;-72
2024/02/07 08:30:31;;;;;;;5.80;2.00;;;;;;;8.89;100.00;98205.39;87067;269;22569;-74
2024/02/07 08:32:33;;;;;;;3.50;1.90;;;;;;;8.88;100.00;98192.36;86884;262;135552;-71
2024/02/07 08:34:35;;;;;;;5.60;1.20;;;;;;;8.86;100.00;98191.24;87045;269;22573;-70
2024/02/07 08:36:37;;;;;;;2.10;1.90;;;;;;;8.84;100.00;98188.05;86986;262;135766;-71
2024/02/07 08:38:41;;;;;;;5.10;2.30;;;;;;;8.82;100.00;98187.37;87046;266;22579;-69
2024/02/07 08:40:45;;;;;;;3.60;1.60;;;;;;;8.80;100.00;98190.58;89923;274;136695;-72
2024/02/07 08:42:47;;;;;;;3.60;1.30;;;;;;;8.82;100.00;98189.90;88124;273;22581;-68
2024/02/07 08:44:48;;;;;;;2.00;1.70;;;;;;;8.83;100.00;98190.30;86928;278;136131;-74
2024/02/07 08:46:50;;;;;;;2.70;1.30;;;;;;;8.85;100.00;98190.73;87014;278;22558;-69
2024/02/07 08:48:52;;;;;;;4.10;2.30;;;;;;;8.88;100.00;98190.70;87134;270;135889;-72
2024/02/07 08:50:54;;;;;;;3.20;1.90;;;;;;;8.93;100.00;98182.25;86973;270;25197;-72
2024/02/07 08:52:56;;;;;;;2.80;1.60;;;;;;;9.03;100.00;98180.25;86924;266;136383;-72
2024/02/07 08:54:57;;;;;;;2.20;1.40;;;;;;;9.11;100.00;98177.66;86961;274;22704;-69
2024/02/07 08:57:00;;;;;;;4.10;1.60;;;;;;;9.14;100.00;98172.52;87003;266;137046;-72
2024/02/07 08:59:02;;;;;;;2.70;1.50;;;;;;;9.12;100.00;98160.48;87060;269;22568;-71
2024/02/07 09:01:07;;;;;;;2.80;1.40;;;;;;;9.11;100.00;98166.20;88416;266;135937;-69
2024/02/07 09:03:09;;;;;;;5.30;1.40;;;;;;;9.14;100.00;98159.40;88223;274;22574;-70
2024/02/07 09:05:12;;;;;;;3.30;1.90;;;;;;;9.20;100.00;98154.52;86993;274;135570;-70
2024/02/07 09:07:14;;;;;;;2.00;1.60;;;;;;;9.26;100.00;98148.65;87069;266;25156;-69
2024/02/07 09:09:19;;;;;;;4.60;1.50;;;;;;;9.33;100.00;98156.83;87068;266;135731;-71
2024/02/07 09:11:23;;;;;;;3.10;1.60;;;;;;;9.41;100.00;98152.79;87113;273;24850;-70
2024/02/07 09:13:24;;;;;;;3.60;1.80;;;;;;;9.49;100.00;98148.44;86975;271;135972;-71
2024/02/07 09:15:26;;;;;;;5.60;1.70;;;;;;;9.57;100.00;98149.88;87136;271;25153;-70
2024/02/07 09:17:31;;;;;;;2.70;1.50;;;;;;;9.67;100.00;98147.19;87024;270;135840;-71
2024/02/07 09:19:33;;;;;;;4.20;1.40;;;;;;;9.78;100.00;98136.49;89965;266;22206;-70
2024/02/07 09:21:35;;;;;;;3.20;1.50;;;;;;;9.87;100.00;98133.39;89890;274;135635;-72
2024/02/07 09:23:37;;;;;;;4.80;2.10;;;;;;;9.96;100.00;98130.87;90000;266;22327;-70
2024/02/07 09:25:38;;;;;;;4.80;1.20;;;;;;;10.03;100.00;98132.64;89325;270;135982;-70
2024/02/07 09:27:41;;;;;;;4.90;1.60;;;;;;;10.07;100.00;98132.67;87066;269;24380;-72
2024/02/07 09:29:44;;;;;;;3.30;1.60;;;;;;;10.14;100.00;98130.39;86949;274;136981;-74
2024/02/07 09:31:55;;;;;;;2.50;1.50;;;;;;;10.22;100.00;98133.04;89987;266;22724;-71
2024/02/07 09:33:58;;;;;;;4.20;2.60;;;;;;;10.30;100.00;98137.03;89842;268;135841;-71
2024/02/07 09:36:01;;;;;;;3.20;1.60;;;;;;;10.38;100.00;98128.02;87527;274;22576;-70
2024/02/07 09:38:05;;;;;;;1.40;1.30;;;;;;;10.43;100.00;98129.11;87110;270;22571;-71
2024/02/07 09:40:08;;;;;;;2.00;1.20;;;;;;;10.45;100.00;98126.59;88595;270;136250;-72
2024/02/07 09:42:16;;;;;;;2.60;1.60;;;;;;;10.49;100.00;98122.17;87123;270;22568;-71
2024/02/07 09:44:19;;;;;;;3.60;0.90;;;;;;;10.53;100.00;98116.39;89967;273;137340;-72
2024/02/07 09:46:25;;;;;;;9.20;1.70;;;;;;;10.55;100.00;98120.45;90060;266;22332;-72
2024/02/07 09:48:28;;;;;;;1.30;1.20;;;;;;;10.57;100.00;98123.42;89193;266;136366;-72
2024/02/07 09:50:34;;;;;;;2.00;1.30;;;;;;;10.59;100.00;98116.42;88781;266;25915;-72
2024/02/07 09:52:39;;;;;;;3.00;1.90;;;;;;;10.60;100.00;98113.45;87034;270;136409;-71
2024/02/07 09:54:42;;;;;;;1.90;1.50;;;;;;;10.60;100.00;98112.60;87179;270;24147;-70
2024/02/07 09:56:46;;;;;;;1.60;1.00;;;;;;;10.60;100.00;98106.30;87139;270;136427;-73
2024/02/07 09:58:47;;;;;;;4.30;1.70;;;;;;;10.56;100.00;98100.34;90184;266;23003;-72
2024/02/07 10:00:52;;;;;;;4.00;1.70;;;;;;;10.53;100.00;98104.40;89927;267;137569;-70
2024/02/07 10:02:54;;;;;;;3.40;1.50;;;;;;;10.52;100.00;98107.14;90235;271;22950;-71
2024/02/07 10:04:59;;;;;;;2.70;1.60;;;;;;;10.50;100.00;98102.98;89892;267;136923;-69
2024/02/07 10:07:01;;;;;;;2.30;0.80;;;;;;;10.47;100.00;98106.91;89926;268;22212;-71
2024/02/07 10:09:05;;;;;;;1.30;1.20;;;;;;;10.45;100.00;98104.49;90054;270;135748;-72
2024/02/07 10:11:07;;;;;;;2.60;1.10;;;;;;;10.44;100.00;98097.02;89933;275;22307;-72
2024/02/07 10:13:12;;;;;;;2.20;1.10;;;;;;;10.41;100.00;98101.33;89719;274;136801;-72
2024/02/07 10:15:14;;;;;;;2.60;1.60;;;;;;;10.33;100.00;98094.70;90235;269;22300;-73
2024/02/07 10:17:16;;;;;;;3.70;1.70;;;;;;;10.27;100.00;98095.55;89879;266;136381;-70
2024/02/07 10:19:18;;;;;;;4.10;1.60;;;;;;;10.21;100.00;98093.36;90072;266;22356;-73
2024/02/07 10:21:30;;;;;;;6.30;1.40;;;;;;;10.17;100.00;98089.68;89995;266;135977;-73
2024/02/07 10:23:32;;;;;;;5.70;1.10;;;;;;;10.15;100.00;98085.42;90044;266;22353;-69
2024/02/07 10:25:34;;;;;;;3.30;1.30;;;;;;;10.14;100.00;98087.92;90137;269;137458;-72
2024/02/07 10:27:37;;;;;;;2.30;1.20;;;;;;;10.13;100.00;98086.95;90004;266;22338;-72
2024/02/07 10:29:40;;;;;;;1.30;1.10;;;;;;;10.14;100.00;98084.52;89967;266;136083;-71
2024/02/07 10:31:42;;;;;;;4.00;1.50;;;;;;;10.18;100.00;98084.88;90025;266;22380;-72
2024/02/07 10:33:47;;;;;;;2.70;1.20;;;;;;;10.21;100.00;98082.55;89771;268;136126;-71
2024/02/07 10:36:03;;;;;;;4.30;1.30;;;;;;;10.22;100.00;98080.55;90082;267;22312;-70
2024/02/07 10:38:05;;;;;;;1.80;1.00;;;;;;;10.23;100.00;98085.98;90064;262;22439;-70
2024/02/07 10:40:09;;;;;;;6.60;1.70;;;;;;;10.23;100.00;98081.36;89859;266;136180;-70
2024/02/07 10:42:11;;;;;;;7.10;1.30;;;;;;;10.23;100.00;98085.41;90296;262;22436;-68
2024/02/07 10:44:12;;;;;;;1.40;1.30;;;;;;;10.23;100.00;98078.54;90177;262;137077;-71
2024/02/07 10:46:16;;;;;;;4.50;3.10;;;;;;;10.20;100.00;98087.81;89930;266;22320;-70
2024/02/07 10:48:18;;;;;;;2.30;1.20;;;;;;;10.20;100.00;98092.16;87465;262;136302;-72
2024/02/07 10:50:21;;;;;;;2.50;1.50;;;;;;;10.21;100.00;98085.95;89571;267;22564;-68
2024/02/07 10:52:24;;;;;;;5.20;1.50;;;;;;;10.22;100.00;98086.67;86951;269;136150;-70